Time;durP1;ratioP1;P1;durP2;ratioP2;P2;SDS_P1;SDS_P2;PMS_P1;PMS_P2;Temp;Humidity;BMP_temperature;BMP_pressure;BME280_temperature;BME280_humidity;BME280_pressure;Samples;Min_cycle;Max_cycle;Signal;HPM_P1;HPM_P2
2022/08/31 00:05:40;;;;;;;;;;;21.80;57.80;;;;;;5069118;28;19917;-73
2022/08/31 00:08:06;;;;;;;;;;;21.70;58.10;;;;;;5071086;28;20391;-73
2022/08/31 00:10:32;;;;;;;;;;;21.60;57.90;;;;;;5070603;28;20368;-73
2022/08/31 00:12:59;;;;;;;;;;;21.60;57.90;;;;;;5071091;28;19962;-73
2022/08/31 00:15:25;;;;;;;;;;;21.60;57.90;;;;;;5051934;28;19912;-76
2022/08/31 00:17:51;;;;;;;;;;;21.60;58.10;;;;;;5070831;28;20361;-73
2022/08/31 00:20:18;;;;;;;;;;;21.50;58.30;;;;;;5070900;28;19912;-73
2022/08/31 00:22:44;;;;;;;;;;;21.30;58.80;;;;;;5070165;28;19916;-74
2022/08/31 00:25:10;;;;;;;;;;;21.20;59.40;;;;;;5069050;28;19955;-73
2022/08/31 00:27:36;;;;;;;;;;;21.20;59.80;;;;;;5070251;28;19916;-73
2022/08/31 00:30:03;;;;;;;;;;;21.10;60.00;;;;;;5072300;28;19963;-73
2022/08/31 00:32:30;;;;;;;;;;;21.10;60.90;;;;;;5074225;28;19916;-73
2022/08/31 00:34:56;;;;;;;;;;;21.00;61.20;;;;;;5073639;28;20319;-73
2022/08/31 00:37:22;;;;;;;;;;;20.90;61.70;;;;;;5074778;28;19912;-73
2022/08/31 00:39:48;;;;;;;;;;;21.00;61.70;;;;;;5073784;28;19909;-73
2022/08/31 00:42:14;;;;;;;;;;;21.00;61.80;;;;;;5074714;28;20343;-73
2022/08/31 00:44:40;;;;;;;;;;;21.10;61.50;;;;;;5072553;28;20012;-74
2022/08/31 00:47:06;;;;;;;;;;;21.10;61.80;;;;;;5074777;28;19915;-73
2022/08/31 00:49:34;;;;;;;;;;;21.20;61.00;;;;;;5074079;28;20268;-73
2022/08/31 00:52:03;;;;;;;;;;;21.50;60.80;;;;;;5074308;28;19912;-72
2022/08/31 00:54:31;;;;;;;;;;;21.70;60.40;;;;;;5072563;28;19919;-76
2022/08/31 00:56:57;;;;;;;;;;;21.80;60.10;;;;;;5074155;28;19916;-72
2022/08/31 00:59:23;;;;;;;;;;;21.90;59.80;;;;;;5074525;28;19920;-73
2022/08/31 01:01:50;;;;;;;;;;;22.00;59.80;;;;;;5073639;28;19923;-73
2022/08/31 01:04:16;;;;;;;;;;;22.00;59.60;;;;;;5073113;28;19912;-73
2022/08/31 01:06:42;;;;;;;;;;;22.00;59.70;;;;;;5073659;28;19908;-73
2022/08/31 01:09:09;;;;;;;;;;;21.90;60.00;;;;;;5074203;28;19912;-73
2022/08/31 01:11:36;;;;;;;;;;;21.70;60.00;;;;;;5073408;28;19920;-73
2022/08/31 01:14:02;;;;;;;;;;;21.70;60.50;;;;;;5072905;28;19967;-73
2022/08/31 01:16:33;;;;;;;;;;;21.60;60.60;;;;;;5073649;28;20369;-76
2022/08/31 01:19:01;;;;;;;;;;;21.60;60.90;;;;;;5067442;28;19923;-73
2022/08/31 01:21:30;;;;;;;;;;;21.50;61.50;;;;;;5055907;28;19913;-76
2022/08/31 01:23:59;;;;;;;;;;;21.50;61.60;;;;;;5072566;28;19912;-73
2022/08/31 01:26:26;;;;;;;;;;;21.50;61.80;;;;;;5073782;28;19951;-73
2022/08/31 01:28:56;;;;;;;;;;;21.50;62.00;;;;;;5055000;28;19917;-73
2022/08/31 01:31:23;;;;;;;;;;;21.50;62.20;;;;;;5073739;28;19920;-73
2022/08/31 01:33:50;;;;;;;;;;;21.40;62.50;;;;;;5053259;28;19916;-73
2022/08/31 01:36:16;;;;;;;;;;;21.40;62.40;;;;;;5073461;28;20384;-73
2022/08/31 01:38:42;;;;;;;;;;;21.50;62.60;;;;;;5055131;28;20273;-73
2022/08/31 01:41:09;;;;;;;;;;;21.50;62.60;;;;;;5073462;28;19908;-72
2022/08/31 01:43:35;;;;;;;;;;;21.50;62.90;;;;;;5052643;28;19916;-73
2022/08/31 01:46:01;;;;;;;;;;;21.50;65.10;;;;;;5068551;28;20259;-73
2022/08/31 01:48:28;;;;;;;;;;;21.50;69.20;;;;;;5071127;28;19913;-76
2022/08/31 01:50:54;;;;;;;;;;;21.50;72.50;;;;;;5072924;28;20285;-73
2022/08/31 01:53:20;;;;;;;;;;;21.40;78.90;;;;;;5054180;28;20372;-74
2022/08/31 01:55:46;;;;;;;;;;;21.30;84.20;;;;;;5054115;28;19913;-73
2022/08/31 01:58:13;;;;;;;;;;;21.30;88.30;;;;;;5071608;28;19928;-73
2022/08/31 02:00:58;;;;;;;;;;;21.30;90.70;;;;;;5073782;28;19987;-73
2022/08/31 02:03:24;;;;;;;;;;;21.10;92.40;;;;;;5072742;28;19919;-74
2022/08/31 02:05:50;;;;;;;;;;;21.00;93.50;;;;;;5054646;28;19909;-73
2022/08/31 02:08:16;;;;;;;;;;;20.90;94.70;;;;;;5073114;28;19912;-73
2022/08/31 02:10:43;;;;;;;;;;;20.80;95.50;;;;;;5055137;28;20281;-73
2022/08/31 02:13:09;;;;;;;;;;;20.80;96.00;;;;;;5088745;28;19915;-74
2022/08/31 02:15:36;;;;;;;;;;;20.80;96.20;;;;;;5071878;28;19912;-73
2022/08/31 02:18:02;;;;;;;;;;;20.80;96.50;;;;;;5071960;28;19913;-73
2022/08/31 02:20:28;;;;;;;;;;;20.70;96.90;;;;;;5072806;28;19947;-76
2022/08/31 02:22:55;;;;;;;;;;;20.70;97.90;;;;;;5054647;28;19913;-73
2022/08/31 02:25:21;;;;;;;;;;;20.60;98.30;;;;;;5053659;28;19981;-73
2022/08/31 02:27:47;;;;;;;;;;;20.60;98.90;;;;;;5056500;28;19917;-73
2022/08/31 02:30:15;;;;;;;;;;;20.50;99.20;;;;;;5074270;28;19928;-74
2022/08/31 02:32:41;;;;;;;;;;;20.50;99.70;;;;;;5071913;28;19912;-74
2022/08/31 02:35:09;;;;;;;;;;;20.40;99.90;;;;;;5053287;28;19912;-74
2022/08/31 02:37:35;;;;;;;;;;;20.40;99.90;;;;;;5053939;28;19943;-74
2022/08/31 02:40:02;;;;;;;;;;;20.40;99.90;;;;;;5054422;28;19908;-73
2022/08/31 02:42:29;;;;;;;;;;;20.30;99.90;;;;;;5064389;28;19920;-76
2022/08/31 02:44:56;;;;;;;;;;;20.20;99.90;;;;;;5052998;28;20281;-73
2022/08/31 02:47:22;;;;;;;;;;;20.20;99.90;;;;;;5054619;28;19913;-73
2022/08/31 02:50:09;;;;;;;;;;;20.10;99.90;;;;;;5054047;28;19919;-73
2022/08/31 02:52:35;;;;;;;;;;;20.10;99.90;;;;;;5053176;28;19912;-73
2022/08/31 02:55:02;;;;;;;;;;;20.10;99.90;;;;;;5052373;28;19912;-74
2022/08/31 02:57:28;;;;;;;;;;;20.10;99.90;;;;;;5053883;28;19924;-74
2022/08/31 02:59:55;;;;;;;;;;;20.00;99.90;;;;;;5053867;28;19919;-73
2022/08/31 03:02:22;;;;;;;;;;;19.90;99.90;;;;;;5054549;28;19920;-74
2022/08/31 03:04:48;;;;;;;;;;;19.90;99.90;;;;;;5052276;28;19912;-74
2022/08/31 03:07:17;;;;;;;;;;;19.90;99.90;;;;;;5054178;28;19931;-73
2022/08/31 03:09:43;;;;;;;;;;;19.90;99.90;;;;;;5063271;28;19913;-74
2022/08/31 03:12:09;;;;;;;;;;;19.90;99.90;;;;;;5053950;28;19916;-73
2022/08/31 03:14:35;;;;;;;;;;;19.90;99.90;;;;;;5051355;28;19913;-72
2022/08/31 03:17:01;;;;;;;;;;;19.90;99.90;;;;;;5066740;28;19920;-72
2022/08/31 03:19:27;;;;;;;;;;;19.80;99.90;;;;;;5085876;28;19935;-72
2022/08/31 03:21:53;;;;;;;;;;;19.80;99.90;;;;;;5069149;28;20491;-73
2022/08/31 03:24:20;;;;;;;;;;;19.70;99.90;;;;;;5052566;28;19913;-73
2022/08/31 03:26:47;;;;;;;;;;;19.70;99.90;;;;;;5070618;28;19921;-73
2022/08/31 03:29:13;;;;;;;;;;;19.70;99.90;;;;;;5072003;28;19917;-73
2022/08/31 03:32:12;;;;;;;;;;;19.70;99.90;;;;;;5063955;28;19925;-73
2022/08/31 03:34:41;;;;;;;;;;;19.70;99.90;;;;;;5051174;28;19916;-73
2022/08/31 03:37:07;;;;;;;;;;;19.70;99.90;;;;;;5071871;28;19916;-73
2022/08/31 03:39:33;;;;;;;;;;;19.70;99.90;;;;;;5053837;28;20357;-76
2022/08/31 03:41:59;;;;;;;;;;;19.60;99.90;;;;;;5069986;28;19920;-73
2022/08/31 03:44:25;;;;;;;;;;;19.60;99.90;;;;;;5062474;28;19913;-73
2022/08/31 03:46:56;;;;;;;;;;;19.60;99.90;;;;;;5052684;28;19919;-73
2022/08/31 03:49:22;;;;;;;;;;;19.60;99.90;;;;;;5053529;28;19912;-73
2022/08/31 03:52:06;;;;;;;;;;;19.60;99.90;;;;;;5053585;28;19935;-73
2022/08/31 03:54:40;;;;;;;;;;;19.60;99.90;;;;;;5051933;28;19919;-73
2022/08/31 03:57:06;;;;;;;;;;;19.60;99.90;;;;;;5053943;28;19912;-73
2022/08/31 03:59:33;;;;;;;;;;;19.60;99.90;;;;;;5053255;28;19921;-78
2022/08/31 04:02:23;;;;;;;;;;;19.60;99.90;;;;;;5070749;28;19908;-73
2022/08/31 04:05:08;;;;;;;;;;;19.60;99.90;;;;;;5080536;28;19912;-73
2022/08/31 04:07:53;;;;;;;;;;;19.60;99.90;;;;;;5081747;28;19923;-73
2022/08/31 04:10:40;;;;;;;;;;;19.60;99.90;;;;;;5033440;28;19920;-73
2022/08/31 04:13:26;;;;;;;;;;;19.50;99.90;;;;;;5042258;28;20601;-73
2022/08/31 04:16:12;;;;;;;;;;;19.50;99.90;;;;;;5075310;28;19923;-73
2022/08/31 04:18:57;;;;;;;;;;;19.50;99.90;;;;;;5074593;28;19919;-73
2022/08/31 04:21:25;;;;;;;;;;;19.50;99.90;;;;;;5057646;28;19912;-72
2022/08/31 04:23:52;;;;;;;;;;;19.50;99.90;;;;;;5054246;28;19919;-73
2022/08/31 04:26:19;;;;;;;;;;;19.50;99.90;;;;;;5056776;28;19931;-73
2022/08/31 04:28:47;;;;;;;;;;;19.50;99.90;;;;;;5074703;28;19917;-73
2022/08/31 04:31:13;;;;;;;;;;;19.50;99.90;;;;;;5056470;28;19920;-72
2022/08/31 04:33:39;;;;;;;;;;;19.50;99.90;;;;;;5054613;28;19919;-74
2022/08/31 04:36:06;;;;;;;;;;;19.40;99.90;;;;;;5056622;28;19913;-72
2022/08/31 04:38:33;;;;;;;;;;;19.40;99.90;;;;;;5075043;28;19935;-72
2022/08/31 04:41:08;;;;;;;;;;;19.40;99.90;;;;;;5056236;28;19917;-73
2022/08/31 04:43:36;;;;;;;;;;;19.30;99.90;;;;;;5055121;28;19913;-76
2022/08/31 04:46:02;;;;;;;;;;;19.20;99.90;;;;;;5055945;28;19916;-73
2022/08/31 04:48:28;;;;;;;;;;;19.20;99.90;;;;;;5057022;28;19912;-72
2022/08/31 04:51:02;;;;;;;;;;;19.20;99.90;;;;;;5056295;28;19931;-73
2022/08/31 04:53:28;;;;;;;;;;;19.20;99.90;;;;;;5054903;28;19916;-73
2022/08/31 04:55:55;;;;;;;;;;;19.20;99.90;;;;;;5055294;28;19912;-73
2022/08/31 04:58:22;;;;;;;;;;;19.20;99.90;;;;;;5074450;28;19920;-73
2022/08/31 05:00:51;;;;;;;;;;;19.20;99.90;;;;;;5055655;28;19912;-73
2022/08/31 05:03:43;;;;;;;;;;;19.20;99.90;;;;;;5070924;28;20396;-73
2022/08/31 05:06:14;;;;;;;;;;;19.10;99.90;;;;;;5056169;28;19912;-73
2022/08/31 05:08:40;;;;;;;;;;;19.10;99.90;;;;;;5074067;28;19913;-76
2022/08/31 05:11:13;;;;;;;;;;;19.10;99.90;;;;;;5056598;28;19920;-73
2022/08/31 05:13:39;;;;;;;;;;;19.00;99.90;;;;;;5081517;28;19912;-77
2022/08/31 05:16:06;;;;;;;;;;;18.90;99.90;;;;;;5055103;28;20377;-74
2022/08/31 05:18:32;;;;;;;;;;;18.90;99.90;;;;;;5073977;28;19912;-73
2022/08/31 05:21:24;;;;;;;;;;;18.90;99.90;;;;;;5055812;28;19912;-73
2022/08/31 05:23:50;;;;;;;;;;;18.90;99.90;;;;;;5049708;28;19913;-74
2022/08/31 05:26:18;;;;;;;;;;;19.00;99.90;;;;;;5055464;28;20289;-74
2022/08/31 05:28:44;;;;;;;;;;;19.00;99.90;;;;;;5055488;28;19916;-73
2022/08/31 05:31:11;;;;;;;;;;;19.10;99.90;;;;;;5073449;28;19920;-73
2022/08/31 05:33:42;;;;;;;;;;;19.10;99.90;;;;;;5053244;28;19923;-73
2022/08/31 05:36:09;;;;;;;;;;;19.10;99.90;;;;;;5055899;28;19912;-73
2022/08/31 05:38:36;;;;;;;;;;;19.10;99.90;;;;;;5055893;28;19912;-73
2022/08/31 05:41:02;;;;;;;;;;;19.10;99.90;;;;;;5055687;28;19919;-73
2022/08/31 05:43:29;;;;;;;;;;;19.10;99.90;;;;;;5072689;28;19920;-73
2022/08/31 05:45:56;;;;;;;;;;;19.10;99.90;;;;;;5090027;28;20254;-73
2022/08/31 05:48:23;;;;;;;;;;;19.10;99.90;;;;;;5056838;28;20285;-72
2022/08/31 05:50:49;;;;;;;;;;;19.00;99.90;;;;;;5056337;28;19927;-72
2022/08/31 05:53:15;;;;;;;;;;;18.90;99.90;;;;;;5055180;28;19920;-72
2022/08/31 05:55:41;;;;;;;;;;;18.90;99.90;;;;;;5091239;28;19912;-75
2022/08/31 05:58:08;;;;;;;;;;;18.80;99.90;;;;;;5076315;28;19939;-73
2022/08/31 06:00:37;;;;;;;;;;;18.70;99.90;;;;;;5074377;28;20357;-72
2022/08/31 06:03:23;;;;;;;;;;;18.80;99.90;;;;;;5071935;28;19916;-72
2022/08/31 06:05:51;;;;;;;;;;;18.80;99.90;;;;;;5054673;28;20258;-72
2022/08/31 06:08:18;;;;;;;;;;;18.80;99.90;;;;;;5056076;28;19909;-73
2022/08/31 06:10:47;;;;;;;;;;;18.80;99.90;;;;;;5055427;28;19924;-73
2022/08/31 06:13:15;;;;;;;;;;;18.80;99.90;;;;;;5087885;28;20683;-72
2022/08/31 06:15:42;;;;;;;;;;;18.70;99.90;;;;;;5072987;28;19916;-75
2022/08/31 06:18:09;;;;;;;;;;;18.70;99.90;;;;;;5056147;28;20384;-73
2022/08/31 06:20:38;;;;;;;;;;;18.80;99.90;;;;;;5073593;28;19920;-72
2022/08/31 06:23:06;;;;;;;;;;;18.90;99.90;;;;;;5080292;28;19927;-73
2022/08/31 06:25:42;;;;;;;;;;;18.90;99.90;;;;;;5065759;28;20254;-75
2022/08/31 06:28:10;;;;;;;;;;;18.90;99.90;;;;;;5055501;28;19916;-73
2022/08/31 06:30:38;;;;;;;;;;;18.90;99.90;;;;;;5089488;28;19913;-72
2022/08/31 06:33:05;;;;;;;;;;;19.00;99.90;;;;;;5053316;28;20353;-73
2022/08/31 06:35:46;;;;;;;;;;;19.10;99.90;;;;;;5054691;28;19913;-73
2022/08/31 06:38:51;;;;;;;;;;;19.10;99.90;;;;;;5072455;28;19913;-72
2022/08/31 06:41:36;;;;;;;;;;;19.10;99.90;;;;;;5054592;28;20273;-72
2022/08/31 06:44:22;;;;;;;;;;;19.10;99.90;;;;;;5071191;28;19935;-72
2022/08/31 06:46:59;;;;;;;;;;;19.00;99.90;;;;;;5079819;28;19913;-72
2022/08/31 06:49:31;;;;;;;;;;;19.10;99.90;;;;;;5055073;28;19920;-72
2022/08/31 06:51:59;;;;;;;;;;;19.00;99.90;;;;;;5053851;28;19920;-71
2022/08/31 06:54:26;;;;;;;;;;;19.00;99.90;;;;;;5053391;28;20365;-72
2022/08/31 06:57:11;;;;;;;;;;;18.90;99.90;;;;;;5073816;28;19931;-73
2022/08/31 07:00:09;;;;;;;;;;;18.90;99.90;;;;;;5061248;28;19916;-73
2022/08/31 07:02:54;;;;;;;;;;;18.80;99.90;;;;;;5071363;28;19920;-74
2022/08/31 07:05:20;;;;;;;;;;;18.70;99.90;;;;;;5054379;28;19913;-73
2022/08/31 07:07:46;;;;;;;;;;;18.70;99.90;;;;;;5054637;28;19912;-73
2022/08/31 07:10:12;;;;;;;;;;;18.60;99.90;;;;;;5054580;28;20270;-72
2022/08/31 07:12:38;;;;;;;;;;;18.60;99.90;;;;;;5072496;28;19921;-72
2022/08/31 07:15:05;;;;;;;;;;;18.50;99.90;;;;;;5071121;28;20003;-73
2022/08/31 07:17:32;;;;;;;;;;;18.40;99.90;;;;;;5070507;28;19917;-73
2022/08/31 07:19:59;;;;;;;;;;;18.30;99.90;;;;;;5053392;28;19945;-71
2022/08/31 07:22:26;;;;;;;;;;;18.30;99.90;;;;;;5054035;28;19920;-72
2022/08/31 07:25:03;;;;;;;;;;;18.20;99.90;;;;;;5046225;28;19920;-72
2022/08/31 07:27:33;;;;;;;;;;;18.20;99.90;;;;;;5064586;28;19925;-73
2022/08/31 07:29:59;;;;;;;;;;;18.20;99.90;;;;;;5042107;28;19936;-73
2022/08/31 07:32:28;;;;;;;;;;;18.20;99.90;;;;;;5067217;28;19920;-70
2022/08/31 07:34:55;;;;;;;;;;;18.10;99.90;;;;;;5049779;28;19919;-72
2022/08/31 07:43:03;;;;;;;;;;;17.60;99.90;;;;;;5062608;28;19913;-73
2022/08/31 07:45:31;;;;;;;;;;;17.30;99.90;;;;;;5044624;28;19920;-73
2022/08/31 07:47:59;;;;;;;;;;;17.10;99.90;;;;;;5050268;28;20270;-73
2022/08/31 07:50:30;;;;;;;;;;;16.90;99.90;;;;;;5084243;28;19913;-73
2022/08/31 07:53:45;;;;;;;;;;;16.60;99.90;;;;;;5048077;28;20439;-72
2022/08/31 07:56:37;;;;;;;;;;;16.50;99.90;;;;;;5043093;28;19912;-73
2022/08/31 07:59:09;;;;;;;;;;;16.40;99.90;;;;;;5058430;28;19917;-73
2022/08/31 08:01:39;;;;;;;;;;;16.40;99.90;;;;;;5077146;28;19920;-73
2022/08/31 08:04:06;;;;;;;;;;;16.30;99.90;;;;;;5076433;28;19909;-74
2022/08/31 08:06:55;;;;;;;;;;;16.20;99.90;;;;;;5047582;28;19920;-73
2022/08/31 08:09:41;;;;;;;;;;;16.20;99.90;;;;;;5050587;28;19920;-73
2022/08/31 08:12:19;;;;;;;;;;;16.10;99.90;;;;;;5051055;28;20285;-73
2022/08/31 08:15:06;;;;;;;;;;;16.10;99.90;;;;;;5062291;28;19920;-73
2022/08/31 08:18:04;;;;;;;;;;;16.10;99.90;;;;;;5047768;28;19917;-73
2022/08/31 08:20:37;;;;;;;;;;;16.10;99.90;;;;;;5044348;28;20345;-73
2022/08/31 08:23:06;;;;;;;;;;;16.10;99.90;;;;;;5062537;28;19917;-73
2022/08/31 08:25:35;;;;;;;;;;;16.10;99.90;;;;;;5055478;28;19924;-73
2022/08/31 08:28:07;;;;;;;;;;;16.10;99.90;;;;;;5071865;28;19924;-74
2022/08/31 08:30:36;;;;;;;;;;;16.10;99.90;;;;;;5054000;28;19913;-75
2022/08/31 08:33:03;;;;;;;;;;;16.10;99.90;;;;;;5052315;28;19920;-75
2022/08/31 08:35:31;;;;;;;;;;;16.10;99.90;;;;;;5087824;28;19908;-75
2022/08/31 08:37:57;;;;;;;;;;;16.00;99.90;;;;;;5085132;28;20132;-75
2022/08/31 08:40:29;;;;;;;;;;;16.00;99.90;;;;;;5086112;28;19912;-73
2022/08/31 08:42:58;;;;;;;;;;;16.00;99.90;;;;;;5067813;28;20357;-74
2022/08/31 08:45:25;;;;;;;;;;;16.00;99.90;;;;;;5054062;28;19912;-74
2022/08/31 08:47:55;;;;;;;;;;;15.90;99.90;;;;;;5052694;28;19935;-75
2022/08/31 08:50:23;;;;;;;;;;;15.90;99.90;;;;;;5054058;28;19935;-74
2022/08/31 08:52:49;;;;;;;;;;;15.90;99.90;;;;;;5055375;28;20360;-73
2022/08/31 08:55:17;;;;;;;;;;;16.00;99.90;;;;;;5075414;28;20369;-73
2022/08/31 08:57:48;;;;;;;;;;;16.00;99.90;;;;;;5056482;28;19916;-82
2022/08/31 09:00:19;;;;;;;;;;;16.00;99.90;;;;;;5052122;28;19923;-78
2022/08/31 09:03:00;;;;;;;;;;;15.90;99.90;;;;;;5055209;28;19916;-74
2022/08/31 09:06:00;;;;;;;;;;;15.80;99.90;;;;;;5056160;28;19936;-74
2022/08/31 09:08:42;;;;;;;;;;;15.90;99.90;;;;;;5090609;28;19920;-74
2022/08/31 09:11:21;;;;;;;;;;;15.90;99.90;;;;;;5056095;28;19919;-74
2022/08/31 09:14:05;;;;;;;;;;;15.90;99.90;;;;;;5054701;28;19919;-75
2022/08/31 09:16:39;;;;;;;;;;;15.90;99.90;;;;;;5057607;28;19923;-75
2022/08/31 09:19:11;;;;;;;;;;;15.90;99.90;;;;;;5060396;28;19927;-74
2022/08/31 09:21:47;;;;;;;;;;;16.00;99.90;;;;;;5070691;28;19912;-76
2022/08/31 09:24:19;;;;;;;;;;;16.00;99.90;;;;;;5064319;28;19920;-77
2022/08/31 09:27:16;;;;;;;;;;;16.10;99.90;;;;;;5059022;28;19998;-75
2022/08/31 09:29:44;;;;;;;;;;;16.20;99.90;;;;;;5078380;28;20250;-76
2022/08/31 09:32:16;;;;;;;;;;;16.30;99.90;;;;;;5076427;28;20036;-75
2022/08/31 09:34:50;;;;;;;;;;;16.10;99.90;;;;;;5074546;28;19916;-75
2022/08/31 09:37:20;;;;;;;;;;;16.30;99.90;;;;;;5069369;28;20350;-75
2022/08/31 09:39:48;;;;;;;;;;;16.40;99.90;;;;;;5069001;28;20273;-75
2022/08/31 09:42:30;;;;;;;;;;;16.50;99.90;;;;;;5069040;28;19916;-75
2022/08/31 09:45:00;;;;;;;;;;;16.60;99.90;;;;;;5069132;28;20377;-75
2022/08/31 09:47:29;;;;;;;;;;;16.70;99.90;;;;;;5075509;28;19912;-75
2022/08/31 09:49:55;;;;;;;;;;;16.80;99.90;;;;;;5075589;28;19920;-75
2022/08/31 09:55:12;;;;;;;;;;;16.90;99.90;;;;;;5076116;28;20467;-76
2022/08/31 09:55:13;;;;;;;;;;;16.90;99.90;;;;;;5074343;28;19912;-75
2022/08/31 09:57:42;;;;;;;;;;;16.70;99.90;;;;;;5075272;28;20353;-75
2022/08/31 10:00:11;;;;;;;;;;;16.80;99.90;;;;;;5074419;28;19916;-75
2022/08/31 10:02:37;;;;;;;;;;;17.00;99.90;;;;;;5074261;28;19912;-75
2022/08/31 10:05:05;;;;;;;;;;;17.00;99.90;;;;;;5066460;28;20309;-74
2022/08/31 10:07:31;;;;;;;;;;;17.00;99.90;;;;;;5074356;28;19916;-74
2022/08/31 10:10:00;;;;;;;;;;;17.00;99.90;;;;;;5073413;28;19919;-74
2022/08/31 10:12:38;;;;;;;;;;;17.20;99.90;;;;;;5073885;28;19920;-74
2022/08/31 10:15:09;;;;;;;;;;;17.30;99.90;;;;;;5055211;28;19913;-75
2022/08/31 10:17:55;;;;;;;;;;;17.40;99.90;;;;;;5074023;28;19927;-74
2022/08/31 10:20:27;;;;;;;;;;;17.50;99.90;;;;;;5067857;28;19920;-75
2022/08/31 10:23:12;;;;;;;;;;;17.60;99.90;;;;;;5073020;28;19913;-75
2022/08/31 10:25:46;;;;;;;;;;;17.50;99.90;;;;;;5073621;28;19943;-73
2022/08/31 10:28:19;;;;;;;;;;;17.70;99.90;;;;;;5073012;28;19916;-72
2022/08/31 10:30:50;;;;;;;;;;;17.60;99.90;;;;;;5074098;28;19913;-75
2022/08/31 10:33:18;;;;;;;;;;;17.70;99.90;;;;;;5073912;28;19944;-72
2022/08/31 10:35:56;;;;;;;;;;;17.80;99.90;;;;;;5074116;28;19919;-74
2022/08/31 10:38:28;;;;;;;;;;;18.00;99.90;;;;;;5074324;28;20277;-73
2022/08/31 10:41:13;;;;;;;;;;;18.00;99.90;;;;;;5073932;28;19919;-74
2022/08/31 10:43:58;;;;;;;;;;;18.10;99.90;;;;;;5068549;28;19912;-73
2022/08/31 10:46:24;;;;;;;;;;;18.10;99.90;;;;;;5073062;28;19912;-73
2022/08/31 10:48:53;;;;;;;;;;;18.00;99.90;;;;;;5072310;28;19912;-76
2022/08/31 10:51:27;;;;;;;;;;;18.00;99.90;;;;;;5073146;28;19912;-73
2022/08/31 10:54:01;;;;;;;;;;;18.10;99.90;;;;;;5070988;28;20369;-74
2022/08/31 10:56:38;;;;;;;;;;;18.10;99.90;;;;;;5073522;28;19916;-74
2022/08/31 10:59:12;;;;;;;;;;;18.20;99.90;;;;;;5071866;28;19924;-73
2022/08/31 11:01:47;;;;;;;;;;;18.20;99.90;;;;;;5066829;28;19913;-77
2022/08/31 11:04:13;;;;;;;;;;;18.20;99.90;;;;;;5071111;28;20362;-74
2022/08/31 11:06:49;;;;;;;;;;;18.40;99.90;;;;;;5072840;28;19919;-74
2022/08/31 11:09:20;;;;;;;;;;;18.50;99.90;;;;;;5072070;28;19919;-73
2022/08/31 11:11:56;;;;;;;;;;;18.40;99.90;;;;;;5072496;28;19927;-73
2022/08/31 11:14:32;;;;;;;;;;;18.40;99.90;;;;;;5071137;28;19920;-73
2022/08/31 11:17:01;;;;;;;;;;;18.40;99.90;;;;;;5072154;28;19912;-73
2022/08/31 11:19:49;;;;;;;;;;;18.40;99.90;;;;;;5072223;28;19913;-73
2022/08/31 11:22:36;;;;;;;;;;;18.40;99.90;;;;;;5065151;28;19912;-73
2022/08/31 11:25:23;;;;;;;;;;;18.20;99.90;;;;;;5067654;28;19916;-74
2022/08/31 11:27:52;;;;;;;;;;;18.20;99.90;;;;;;5072105;28;20353;-74
2022/08/31 11:30:23;;;;;;;;;;;18.10;99.90;;;;;;5071807;28;19919;-74
2022/08/31 11:32:51;;;;;;;;;;;18.20;99.90;;;;;;5071138;28;19927;-74
2022/08/31 11:35:36;;;;;;;;;;;18.20;99.90;;;;;;5072301;28;20354;-73
2022/08/31 11:38:02;;;;;;;;;;;18.20;99.90;;;;;;5071449;28;19917;-75
2022/08/31 11:40:40;;;;;;;;;;;18.40;99.90;;;;;;5071929;28;20360;-74
2022/08/31 11:43:07;;;;;;;;;;;18.50;99.90;;;;;;5070650;28;19920;-75
2022/08/31 11:45:36;;;;;;;;;;;18.30;99.90;;;;;;5071987;28;19920;-74
2022/08/31 11:48:05;;;;;;;;;;;18.40;99.90;;;;;;5071702;28;19917;-74
2022/08/31 11:50:37;;;;;;;;;;;18.70;99.90;;;;;;5071832;28;19912;-74
2022/08/31 11:53:24;;;;;;;;;;;18.80;99.90;;;;;;5070609;28;20368;-74
2022/08/31 11:55:52;;;;;;;;;;;18.80;99.90;;;;;;5071865;28;19916;-74
2022/08/31 11:58:25;;;;;;;;;;;18.40;99.90;;;;;;5071668;28;19917;-74
2022/08/31 12:00:56;;;;;;;;;;;18.40;99.90;;;;;;5071972;28;19912;-74
2022/08/31 12:03:33;;;;;;;;;;;18.50;99.90;;;;;;5071145;28;19916;-74
2022/08/31 12:05:59;;;;;;;;;;;18.60;99.90;;;;;;5071183;28;19920;-74
2022/08/31 12:08:31;;;;;;;;;;;18.80;99.90;;;;;;5071914;28;20383;-73
2022/08/31 12:11:03;;;;;;;;;;;18.70;99.90;;;;;;5071047;28;19919;-74
2022/08/31 12:13:44;;;;;;;;;;;18.80;99.90;;;;;;5064350;28;19927;-74
2022/08/31 12:16:36;;;;;;;;;;;19.00;99.90;;;;;;5066368;28;19913;-73
2022/08/31 12:24:50;;;;;;;;;;;19.10;99.90;;;;;;5071359;28;19920;-73
2022/08/31 12:27:19;;;;;;;;;;;19.30;99.90;;;;;;5074918;28;20237;-73
2022/08/31 12:29:45;;;;;;;;;;;19.40;99.90;;;;;;5074815;28;19936;-72
2022/08/31 12:32:20;;;;;;;;;;;19.40;99.90;;;;;;5074205;28;19923;-73
2022/08/31 12:34:49;;;;;;;;;;;19.30;99.90;;;;;;5074863;28;19913;-73
2022/08/31 12:37:32;;;;;;;;;;;19.40;99.90;;;;;;5075266;28;19923;-73
2022/08/31 12:40:07;;;;;;;;;;;19.10;99.90;;;;;;5061774;28;19919;-73
2022/08/31 12:42:37;;;;;;;;;;;19.10;99.90;;;;;;5074323;28;19925;-72
2022/08/31 12:45:03;;;;;;;;;;;19.20;99.90;;;;;;5092631;28;19908;-73
2022/08/31 12:47:41;;;;;;;;;;;19.10;99.90;;;;;;5097919;28;19919;-73
2022/08/31 12:50:10;;;;;;;;;;;19.30;99.90;;;;;;5085621;28;20292;-72
2022/08/31 12:52:45;;;;;;;;;;;19.20;99.90;;;;;;5079465;28;19920;-72
2022/08/31 12:55:28;;;;;;;;;;;19.20;99.90;;;;;;5079054;28;19912;-73
2022/08/31 12:57:58;;;;;;;;;;;19.30;99.90;;;;;;5077891;28;19920;-72
2022/08/31 13:00:29;;;;;;;;;;;19.30;99.90;;;;;;5071476;28;19913;-72
2022/08/31 13:02:57;;;;;;;;;;;19.30;99.90;;;;;;5074009;28;20278;-72
2022/08/31 13:05:31;;;;;;;;;;;19.30;99.90;;;;;;5075788;28;20318;-71
2022/08/31 13:07:57;;;;;;;;;;;19.00;99.90;;;;;;5075075;28;20408;-75
2022/08/31 13:10:33;;;;;;;;;;;19.10;99.90;;;;;;5057074;28;19924;-71
2022/08/31 13:13:04;;;;;;;;;;;19.30;99.90;;;;;;5073822;28;19921;-72
2022/08/31 13:15:34;;;;;;;;;;;19.40;99.90;;;;;;5075206;28;19919;-71
2022/08/31 13:18:01;;;;;;;;;;;19.40;99.90;;;;;;5074581;28;20393;-71
2022/08/31 13:20:34;;;;;;;;;;;19.20;99.90;;;;;;5074920;28;20290;-71
2022/08/31 13:23:01;;;;;;;;;;;19.20;99.90;;;;;;5073330;28;20361;-74
2022/08/31 13:25:34;;;;;;;;;;;19.00;99.90;;;;;;5074776;28;19925;-71
2022/08/31 13:28:21;;;;;;;;;;;19.10;99.90;;;;;;5056790;28;19978;-72
2022/08/31 13:30:57;;;;;;;;;;;19.30;99.90;;;;;;5074479;28;19920;-71
2022/08/31 13:33:27;;;;;;;;;;;19.30;99.90;;;;;;5072816;28;19928;-72
2022/08/31 13:35:56;;;;;;;;;;;19.30;99.90;;;;;;5074448;28;19920;-72
2022/08/31 13:38:39;;;;;;;;;;;19.30;99.90;;;;;;5074090;28;20347;-72
2022/08/31 13:41:06;;;;;;;;;;;19.40;99.90;;;;;;5073771;28;19916;-71
2022/08/31 13:43:32;;;;;;;;;;;19.50;99.90;;;;;;5072643;28;19912;-72
2022/08/31 13:45:59;;;;;;;;;;;19.50;99.90;;;;;;5073997;28;19919;-75
2022/08/31 13:48:33;;;;;;;;;;;19.80;99.90;;;;;;5056257;28;19982;-72
2022/08/31 13:51:01;;;;;;;;;;;19.80;99.90;;;;;;5073802;28;19919;-75
2022/08/31 13:54:03;;;;;;;;;;;20.20;99.90;;;;;;5072309;28;19920;-72
2022/08/31 13:59:27;;;;;;;;;;;20.50;99.90;;;;;;5073084;28;20362;-72
2022/08/31 14:02:15;;;;;;;;;;;20.60;99.90;;;;;;5073862;28;20030;-74
2022/08/31 14:07:27;;;;;;;;;;;20.70;99.90;;;;;;5072814;28;20376;-72
2022/08/31 14:10:18;;;;;;;;;;;20.60;99.90;;;;;;5073461;28;19912;-73
2022/08/31 14:12:46;;;;;;;;;;;20.70;99.90;;;;;;5074094;28;19928;-72
2022/08/31 14:15:14;;;;;;;;;;;20.90;99.90;;;;;;5072905;28;19912;-72
2022/08/31 14:17:41;;;;;;;;;;;21.20;99.90;;;;;;5073391;28;20369;-72
2022/08/31 14:20:36;;;;;;;;;;;21.30;99.90;;;;;;5072623;28;19908;-72
2022/08/31 14:23:23;;;;;;;;;;;21.20;99.90;;;;;;5054515;28;20298;-73
2022/08/31 14:25:50;;;;;;;;;;;21.30;99.90;;;;;;5072798;28;19924;-72
2022/08/31 14:28:16;;;;;;;;;;;21.40;99.90;;;;;;5072540;28;19913;-72
2022/08/31 14:30:42;;;;;;;;;;;21.50;99.90;;;;;;5072693;28;19966;-73
2022/08/31 14:33:15;;;;;;;;;;;21.70;99.90;;;;;;5071145;28;19924;-73
2022/08/31 14:35:42;;;;;;;;;;;21.60;99.90;;;;;;5072680;28;19912;-72
2022/08/31 14:38:13;;;;;;;;;;;21.70;99.90;;;;;;5054483;28;19932;-72
2022/08/31 14:40:41;;;;;;;;;;;21.80;99.90;;;;;;5054986;28;19912;-72
2022/08/31 14:43:10;;;;;;;;;;;21.90;99.90;;;;;;5071315;28;19912;-73
2022/08/31 14:45:37;;;;;;;;;;;21.70;99.90;;;;;;5072669;28;19924;-72
2022/08/31 14:48:07;;;;;;;;;;;21.70;99.90;;;;;;5071216;28;19926;-73
2022/08/31 14:50:33;;;;;;;;;;;21.80;99.90;;;;;;5073185;28;19918;-72
2022/08/31 14:53:01;;;;;;;;;;;21.70;99.90;;;;;;5071332;28;19924;-72
2022/08/31 14:55:28;;;;;;;;;;;21.70;99.90;;;;;;5072267;28;19916;-73
2022/08/31 14:58:07;;;;;;;;;;;21.60;99.90;;;;;;5072296;28;20391;-73
2022/08/31 15:00:34;;;;;;;;;;;21.40;99.90;;;;;;5072721;28;20396;-72
2022/08/31 15:03:01;;;;;;;;;;;21.60;99.90;;;;;;5071229;28;19913;-72